Time;durP1;ratioP1;P1;durP2;ratioP2;P2;SDS_P1;SDS_P2;PMS_P1;PMS_P2;Temp;Humidity;BMP_temperature;BMP_pressure;BME280_temperature;BME280_humidity;BME280_pressure;Samples;Min_cycle;Max_cycle;Signal;HPM_P1;HPM_P2
2021/05/01 00:01:19;;;;;;;27.92;20.52;;;;;;;9.24;62.59;100166.69;5070590;28;20037;-79
2021/05/01 00:03:45;;;;;;;26.85;20.48;;;;;;;9.23;62.33;100154.41;5070894;28;20079;-78
2021/05/01 00:06:13;;;;;;;27.73;20.23;;;;;;;9.27;62.57;100163.91;5072951;28;20117;-80
2021/05/01 00:08:40;;;;;;;30.17;19.85;;;;;;;9.28;62.31;100163.84;5068735;28;20041;-80
2021/05/01 00:11:08;;;;;;;31.13;21.05;;;;;;;9.32;62.08;100164.53;5063110;28;20091;-80
2021/05/01 00:13:35;;;;;;;30.48;21.17;;;;;;;9.27;62.51;100162.13;5071931;28;20049;-80
2021/05/01 00:16:05;;;;;;;30.10;21.17;;;;;;;9.29;62.73;100167.31;5074314;28;20037;-81
2021/05/01 00:18:34;;;;;;;30.90;20.85;;;;;;;9.30;62.77;100171.69;5076102;28;20039;-80
2021/05/01 00:21:00;;;;;;;30.08;21.70;;;;;;;9.31;62.96;100162.81;5076624;28;20055;-81
2021/05/01 00:23:27;;;;;;;29.52;22.00;;;;;;;9.16;63.26;100143.25;5076186;28;20071;-79
2021/05/01 00:25:53;;;;;;;31.02;22.75;;;;;;;9.20;63.85;100146.63;5075629;28;20040;-81
2021/05/01 00:28:19;;;;;;;32.50;23.67;;;;;;;9.15;64.06;100157.38;5063691;28;20053;-80
2021/05/01 00:30:46;;;;;;;34.50;24.02;;;;;;;9.12;64.39;100147.84;5065829;28;20460;-80
2021/05/01 00:33:12;;;;;;;32.53;24.20;;;;;;;9.06;64.79;100136.66;5068739;28;20109;-78
2021/05/01 00:35:38;;;;;;;36.78;25.67;;;;;;;9.07;64.96;100127.81;5068389;28;20049;-78
2021/05/01 00:38:04;;;;;;;35.10;24.90;;;;;;;9.07;65.51;100135.75;5065957;28;20395;-79
2021/05/01 00:40:32;;;;;;;34.97;24.95;;;;;;;9.06;65.71;100134.88;5057587;28;20079;-79
2021/05/01 00:42:58;;;;;;;36.20;25.05;;;;;;;9.04;65.62;100134.09;5058567;28;20080;-79
2021/05/01 00:45:26;;;;;;;35.45;25.23;;;;;;;9.07;65.94;100146.31;5056057;28;20117;-79
2021/05/01 00:47:53;;;;;;;36.60;25.85;;;;;;;9.08;66.03;100145.38;5062391;28;20073;-79
2021/05/01 00:50:20;;;;;;;35.05;26.20;;;;;;;9.09;66.01;100141.81;5059077;28;20067;-81
2021/05/01 00:52:47;;;;;;;37.60;27.73;;;;;;;9.06;66.46;100141.94;5061241;28;20056;-79
2021/05/01 00:55:29;;;;;;;37.90;27.58;;;;;;;9.02;66.67;100141.22;5063232;28;20129;-79
2021/05/01 00:57:55;;;;;;;37.55;28.27;;;;;;;9.04;67.32;100142.03;5059996;28;20061;-80
2021/05/01 01:02:50;;;;;;;38.40;28.10;;;;;;;9.02;67.58;100141.22;5063580;28;20052;-78
2021/05/01 01:05:16;;;;;;;42.55;29.55;;;;;;;8.92;68.01;100132.00;5066233;28;20073;-78
2021/05/01 01:07:42;;;;;;;39.80;28.40;;;;;;;8.90;68.21;100125.06;5048638;28;20044;-79
2021/05/01 01:10:09;;;;;;;42.40;30.25;;;;;;;8.87;68.35;100133.13;5075829;28;20049;-79
2021/05/01 01:12:36;;;;;;;46.17;30.48;;;;;;;8.83;68.56;100128.91;5067250;28;20072;-79
2021/05/01 01:15:03;;;;;;;43.28;30.25;;;;;;;8.75;69.02;100131.88;5047719;28;20049;-80
2021/05/01 01:17:30;;;;;;;42.10;29.83;;;;;;;8.68;69.58;100128.66;5052355;28;20044;-81
2021/05/01 01:19:57;;;;;;;41.67;29.42;;;;;;;8.65;69.48;100122.66;5060726;28;20041;-80
2021/05/01 01:22:23;;;;;;;44.35;29.80;;;;;;;8.65;69.26;100134.09;5057238;28;20110;-80
2021/05/01 01:24:50;;;;;;;39.10;28.67;;;;;;;8.62;69.49;100122.78;5057949;28;20060;-79
2021/05/01 01:27:17;;;;;;;42.08;30.45;;;;;;;8.64;70.15;100121.81;5037487;28;20481;-81
2021/05/01 01:29:44;;;;;;;41.88;30.70;;;;;;;8.64;70.22;100121.81;5040043;28;20950;-80
2021/05/01 01:32:12;;;;;;;42.72;31.17;;;;;;;8.63;70.07;100116.59;5059240;28;20381;-80
2021/05/01 01:34:42;;;;;;;45.67;30.75;;;;;;;8.63;70.47;100121.88;5059931;28;20048;-80
2021/05/01 01:37:08;;;;;;;48.20;31.27;;;;;;;8.66;70.31;100121.72;5063763;28;20120;-80
2021/05/01 01:39:36;;;;;;;46.70;31.15;;;;;;;8.64;70.75;100121.81;5075163;28;20063;-79
2021/05/01 01:42:02;;;;;;;48.25;31.35;;;;;;;8.69;70.19;100116.31;5069899;28;20059;-79
2021/05/01 01:44:28;;;;;;;43.83;30.05;;;;;;;8.67;70.25;100118.16;5068793;28;20045;-80
2021/05/01 01:46:55;;;;;;;48.63;32.20;;;;;;;8.68;70.78;100118.09;5054373;28;20506;-80
2021/05/01 01:49:21;;;;;;;42.17;30.15;;;;;;;8.67;70.67;100118.16;5054780;28;20053;-80
2021/05/01 01:51:47;;;;;;;44.00;31.17;;;;;;;8.57;70.85;100101.88;5054055;28;20048;-80
2021/05/01 01:54:14;;;;;;;45.60;31.58;;;;;;;8.58;71.38;100110.66;5043783;28;20044;-80
2021/05/01 01:56:42;;;;;;;48.65;33.38;;;;;;;8.50;71.27;100103.03;5060244;28;20045;-80
2021/05/01 01:59:08;;;;;;;47.22;32.13;;;;;;;8.47;71.68;100108.47;5040918;28;20074;-80
2021/05/01 02:01:34;;;;;;;45.90;31.75;;;;;;;8.40;71.58;100109.66;5081433;28;20143;-80
2021/05/01 02:04:01;;;;;;;47.75;33.10;;;;;;;8.35;71.72;100106.34;5059480;28;20044;-80
2021/05/01 02:06:27;;;;;;;53.30;34.13;;;;;;;8.34;72.05;100110.75;5058822;28;20071;-80
2021/05/01 02:08:53;;;;;;;47.95;34.03;;;;;;;8.27;72.28;100098.72;5058936;28;20133;-80
2021/05/01 02:11:19;;;;;;;49.58;34.53;;;;;;;8.24;72.67;100103.28;5047887;28;20534;-80
2021/05/01 02:13:46;;;;;;;48.88;34.20;;;;;;;8.22;72.59;100111.25;5055691;28;20072;-80
2021/05/01 02:16:13;;;;;;;52.33;35.58;;;;;;;8.20;72.71;100112.22;5059351;28;20077;-80
2021/05/01 02:18:39;;;;;;;52.70;35.35;;;;;;;8.14;73.17;100096.69;5060507;28;20090;-80
2021/05/01 02:21:06;;;;;;;53.40;35.90;;;;;;;8.12;73.01;100099.38;5041280;28;20045;-80
2021/05/01 02:23:32;;;;;;;50.75;34.88;;;;;;;8.07;72.83;100090.78;5059092;28;20139;-81
2021/05/01 02:25:58;;;;;;;51.63;35.25;;;;;;;8.03;73.31;100090.03;5057193;28;20108;-80
2021/05/01 02:28:24;;;;;;;53.78;35.95;;;;;;;8.03;73.54;100102.38;5054630;28;20049;-80
2021/05/01 02:30:50;;;;;;;50.30;35.15;;;;;;;7.98;73.52;100097.31;5052968;28;20111;-79
2021/05/01 02:33:17;;;;;;;51.58;35.38;;;;;;;7.90;73.57;100088.84;5051187;28;20095;-80
2021/05/01 02:35:43;;;;;;;52.08;35.55;;;;;;;7.90;73.77;100090.63;5069109;28;20533;-80
2021/05/01 02:38:09;;;;;;;53.70;36.22;;;;;;;7.84;74.37;100083.84;5067814;28;20057;-79
2021/05/01 02:40:36;;;;;;;50.42;34.97;;;;;;;7.86;74.31;100086.41;5053859;28;20080;-80
2021/05/01 02:43:08;;;;;;;52.22;35.35;;;;;;;7.84;74.38;100081.19;5059703;28;20049;-80
2021/05/01 02:45:35;;;;;;;51.78;35.95;;;;;;;7.84;74.70;100085.63;5041529;28;20041;-80
2021/05/01 02:48:03;;;;;;;52.25;34.97;;;;;;;7.81;74.64;100083.97;5063254;28;20079;-80
2021/05/01 02:50:32;;;;;;;51.35;35.38;;;;;;;7.79;75.03;100080.53;5067364;28;20045;-78
2021/05/01 02:52:58;;;;;;;54.75;36.33;;;;;;;7.81;74.89;100094.50;5067664;28;20045;-80
2021/05/01 02:55:24;;;;;;;60.90;38.10;;;;;;;7.85;75.43;100093.47;5062595;28;20040;-80
2021/05/01 02:57:51;;;;;;;54.67;36.80;;;;;;;7.88;75.17;100085.41;5065902;28;20072;-80
2021/05/01 03:00:22;;;;;;;52.60;36.00;;;;;;;7.89;74.67;100088.91;5065323;28;20159;-82
2021/05/01 03:02:51;;;;;;;53.60;36.83;;;;;;;7.90;75.00;100094.13;5059813;28;20084;-81
2021/05/01 03:05:18;;;;;;;55.50;37.13;;;;;;;7.85;75.10;100088.19;5056317;28;20076;-81
2021/05/01 03:07:44;;;;;;;57.97;38.50;;;;;;;7.79;75.36;100088.44;5049831;28;20037;-80
2021/05/01 03:10:16;;;;;;;60.60;37.28;;;;;;;7.80;74.80;100092.78;5057569;28;20135;-80
2021/05/01 03:12:42;;;;;;;59.83;38.83;;;;;;;7.75;75.22;100089.47;5050628;28;20106;-80
2021/05/01 03:15:10;;;;;;;60.63;39.05;;;;;;;7.73;75.45;100086.03;5058733;28;20085;-80
2021/05/01 03:17:37;;;;;;;59.45;38.88;;;;;;;7.72;75.56;100090.44;5056981;28;20118;-80
2021/05/01 03:20:05;;;;;;;56.63;39.03;;;;;;;7.70;75.44;100088.81;5058508;28;20399;-80
2021/05/01 03:22:31;;;;;;;61.95;40.67;;;;;;;7.67;75.87;100092.41;5058908;28;20098;-79
2021/05/01 03:24:57;;;;;;;58.30;38.75;;;;;;;7.62;75.58;100083.84;5057588;28;20068;-80
2021/05/01 03:27:23;;;;;;;60.10;39.63;;;;;;;7.62;76.42;100081.19;5039558;28;20476;-80
2021/05/01 03:29:49;;;;;;;65.03;39.90;;;;;;;7.63;76.47;100085.56;5052418;28;20059;-80
2021/05/01 03:32:16;;;;;;;61.95;40.13;;;;;;;7.66;75.71;100081.94;5057957;28;20083;-80
2021/05/01 03:34:42;;;;;;;61.03;39.90;;;;;;;7.70;76.01;100094.94;5056176;28;20080;-80
2021/05/01 03:37:09;;;;;;;60.63;40.20;;;;;;;7.67;76.38;100091.56;5055349;28;20064;-81
2021/05/01 03:39:37;;;;;;;60.78;38.92;;;;;;;7.66;76.66;100089.84;5059823;28;20048;-80
2021/05/01 03:42:04;;;;;;;59.03;39.58;;;;;;;7.73;76.75;100101.84;5067433;28;20065;-79
2021/05/01 03:44:30;;;;;;;56.55;38.22;;;;;;;7.69;76.13;100090.59;5065395;28;20060;-80
2021/05/01 03:46:56;;;;;;;59.05;38.83;;;;;;;7.74;76.22;100098.28;5055230;28;20052;-80
2021/05/01 03:49:23;;;;;;;61.08;38.92;;;;;;;7.66;76.24;100105.66;5063799;28;20041;-79
2021/05/01 03:51:51;;;;;;;61.22;40.20;;;;;;;7.65;76.35;100104.78;5067156;28;20072;-79
2021/05/01 03:54:18;;;;;;;60.55;38.67;;;;;;;7.63;76.69;100095.22;5059073;28;20045;-80
2021/05/01 03:56:44;;;;;;;58.08;39.28;;;;;;;7.60;76.64;100100.63;5058816;28;20419;-80
2021/05/01 03:59:11;;;;;;;59.83;38.58;;;;;;;7.58;76.71;100095.41;5054736;28;20857;-80
2021/05/01 04:01:37;;;;;;;59.75;39.10;;;;;;;7.60;76.55;100095.34;5059129;28;20053;-79
2021/05/01 04:04:03;;;;;;;55.58;37.55;;;;;;;7.55;77.05;100100.81;5063156;28;20060;-79
2021/05/01 04:06:29;;;;;;;66.10;41.85;;;;;;;7.55;76.67;100102.59;5065509;28;20519;-79
2021/05/01 04:08:56;;;;;;;62.75;38.40;;;;;;;7.51;77.06;100090.44;5065393;28;20136;-79
2021/05/01 04:11:22;;;;;;;58.60;39.65;;;;;;;7.50;77.12;100088.72;5069326;28;20071;-79
2021/05/01 04:13:49;;;;;;;57.63;38.75;;;;;;;7.50;77.04;100094.00;5066360;28;20092;-80
2021/05/01 04:16:16;;;;;;;63.65;39.58;;;;;;;7.54;77.50;100101.72;5062926;28;20055;-80
2021/05/01 04:18:43;;;;;;;61.22;39.05;;;;;;;7.49;77.31;100092.28;5056390;28;20052;-78
2021/05/01 04:21:09;;;;;;;59.97;37.05;;;;;;;7.39;77.27;100090.03;5062530;28;20216;-79
2021/05/01 04:23:36;;;;;;;59.20;38.70;;;;;;;7.38;78.20;100096.19;5065282;28;20374;-78
2021/05/01 04:26:02;;;;;;;56.30;37.47;;;;;;;7.43;77.62;100097.78;5064680;28;20056;-79
2021/05/01 04:28:30;;;;;;;57.42;37.38;;;;;;;7.44;77.50;100089.81;5059658;28;20097;-79
2021/05/01 04:30:57;;;;;;;57.13;36.50;;;;;;;7.44;77.78;100099.50;5062289;28;20083;-79
2021/05/01 04:33:25;;;;;;;51.47;33.97;;;;;;;7.42;77.86;100101.31;5066040;28;20116;-79
2021/05/01 04:35:51;;;;;;;50.17;34.15;;;;;;;7.40;77.68;100096.13;5071529;28;20053;-78
2021/05/01 04:38:18;;;;;;;51.53;33.22;;;;;;;7.44;78.02;100099.50;5066540;28;20056;-78
2021/05/01 04:40:45;;;;;;;51.88;32.55;;;;;;;7.46;77.01;100103.78;5062165;28;20045;-79
2021/05/01 04:43:12;;;;;;;49.15;31.80;;;;;;;7.35;76.83;100084.91;5062341;28;20104;-81
2021/05/01 04:45:41;;;;;;;48.42;31.88;;;;;;;7.37;77.41;100094.50;5060985;28;20113;-81
2021/05/01 04:48:08;;;;;;;47.55;32.10;;;;;;;7.33;77.09;100092.88;5066438;28;20060;-82
2021/05/01 04:50:34;;;;;;;49.53;33.05;;;;;;;7.30;77.67;100093.00;5067238;28;20061;-80
2021/05/01 04:53:01;;;;;;;43.78;31.02;;;;;;;7.30;77.80;100087.72;5064774;28;20053;-82
2021/05/01 04:55:27;;;;;;;46.80;31.63;;;;;;;7.37;76.89;100085.72;5067548;28;20045;-80
2021/05/01 04:57:54;;;;;;;46.33;30.75;;;;;;;7.46;77.02;100093.25;5060622;28;20083;-79
2021/05/01 05:00:22;;;;;;;47.35;31.13;;;;;;;7.49;76.88;100087.00;5069815;28;20132;-78
2021/05/01 05:02:49;;;;;;;45.85;30.60;;;;;;;7.52;76.94;100082.50;5060913;28;20376;-77
2021/05/01 05:05:18;;;;;;;48.13;30.92;;;;;;;7.63;76.43;100084.69;5065128;28;20772;-79
2021/05/01 05:07:44;;;;;;;43.65;29.30;;;;;;;7.71;76.25;100087.91;5052782;28;20556;-79
2021/05/01 05:10:13;;;;;;;47.25;31.10;;;;;;;7.74;75.89;100085.09;5054659;28;20049;-79
2021/05/01 05:12:40;;;;;;;42.88;29.73;;;;;;;7.80;76.08;100084.00;5042477;28;20076;-79
2021/05/01 05:15:07;;;;;;;45.38;30.50;;;;;;;7.86;75.73;100076.72;5056395;28;20132;-78
2021/05/01 05:17:35;;;;;;;45.60;31.05;;;;;;;7.89;75.46;100078.34;5059104;28;20220;-79
2021/05/01 05:20:03;;;;;;;49.55;33.08;;;;;;;7.97;74.88;100078.91;5062188;28;20053;-78
2021/05/01 05:22:29;;;;;;;44.75;30.70;;;;;;;7.93;74.42;100080.81;5064077;28;20132;-79
2021/05/01 05:24:56;;;;;;;44.03;30.33;;;;;;;7.82;74.68;100075.13;5062779;28;20061;-79
2021/05/01 05:27:22;;;;;;;50.58;31.98;;;;;;;7.84;74.47;100082.97;5066910;28;20257;-78
2021/05/01 05:29:51;;;;;;;44.25;29.40;;;;;;;7.91;74.51;100082.66;5068047;28;20049;-78
2021/05/01 05:32:20;;;;;;;43.08;28.95;;;;;;;8.06;74.98;100081.16;5064662;28;20041;-78
2021/05/01 05:34:46;;;;;;;41.15;29.10;;;;;;;8.24;74.14;100082.16;5065288;28;20049;-79
2021/05/01 05:37:13;;;;;;;40.78;28.50;;;;;;;8.37;73.56;100076.34;5065181;28;20048;-78
2021/05/01 05:39:41;;;;;;;44.88;29.48;;;;;;;8.50;72.78;100083.75;5068799;28;20464;-77
2021/05/01 05:42:09;;;;;;;42.38;28.73;;;;;;;8.62;72.48;100077.94;5068062;28;20112;-80
2021/05/01 05:44:35;;;;;;;41.65;28.75;;;;;;;8.65;71.18;100086.56;5065204;28;20052;-78
2021/05/01 05:47:03;;;;;;;41.45;28.73;;;;;;;8.65;71.62;100089.22;5065088;28;20049;-79
2021/05/01 05:49:30;;;;;;;44.95;30.48;;;;;;;8.70;71.71;100100.41;5066407;28;20052;-78
2021/05/01 05:51:56;;;;;;;45.67;30.23;;;;;;;8.68;71.47;100102.25;5064983;28;20071;-78
2021/05/01 05:54:23;;;;;;;47.08;31.33;;;;;;;8.62;71.37;100104.31;5064537;28;20488;-80
2021/05/01 05:56:49;;;;;;;44.47;30.83;;;;;;;8.57;71.92;100101.00;5062155;28;20515;-80
2021/05/01 05:59:16;;;;;;;42.78;30.52;;;;;;;8.58;71.76;100098.31;5058738;28;20072;-80
2021/05/01 06:01:48;;;;;;;43.75;30.67;;;;;;;8.64;71.37;100095.41;5054590;28;20766;-80
2021/05/01 06:04:23;;;;;;;42.15;29.58;;;;;;;8.73;71.22;100095.00;5058053;28;20106;-78
2021/05/01 06:07:13;;;;;;;42.72;29.50;;;;;;;8.88;70.60;100103.16;5060909;28;20451;-79
2021/05/01 06:09:40;;;;;;;44.20;29.23;;;;;;;8.96;69.38;100104.56;5062165;28;20053;-79
2021/05/01 06:12:09;;;;;;;41.55;28.95;;;;;;;9.10;69.66;100099.50;5063448;28;20500;-80
2021/05/01 06:14:40;;;;;;;37.97;27.55;;;;;;;9.42;68.90;100102.44;5058819;28;20512;-79
2021/05/01 06:17:07;;;;;;;41.30;28.50;;;;;;;9.97;66.91;100092.69;5060458;28;20049;-79
2021/05/01 06:19:35;;;;;;;39.72;27.85;;;;;;;11.30;64.18;100093.75;5059033;28;20477;-79
2021/05/01 06:22:01;;;;;;;36.38;25.63;;;;;;;12.62;57.57;100099.41;5065081;28;20044;-78
2021/05/01 06:24:27;;;;;;;36.53;25.15;;;;;;;13.92;54.29;100084.13;5065612;28;20049;-82
2021/05/01 06:26:57;;;;;;;34.90;23.77;;;;;;;15.05;49.55;100080.81;5069191;28;20049;-79
2021/05/01 06:29:24;;;;;;;31.73;23.85;;;;;;;15.65;47.07;100085.44;5071140;28;20041;-80
2021/05/01 06:31:51;;;;;;;33.85;24.38;;;;;;;15.57;46.62;100081.63;5074377;28;20064;-79
2021/05/01 06:34:17;;;;;;;31.15;24.02;;;;;;;15.60;46.16;100076.91;5075041;28;20045;-79
2021/05/01 06:36:43;;;;;;;30.70;24.05;;;;;;;15.45;47.14;100072.63;5060653;28;20041;-80
2021/05/01 06:39:12;;;;;;;33.30;24.83;;;;;;;15.23;47.24;100078.69;5050908;28;20072;-80
2021/05/01 06:41:57;;;;;;;32.03;24.83;;;;;;;14.51;48.00;100084.63;5079473;28;20105;-80
2021/05/01 06:45:03;;;;;;;31.00;24.55;;;;;;;13.40;50.82;100078.66;5070087;28;20132;-83
2021/05/01 06:47:32;;;;;;;26.20;21.45;;;;;;;12.63;52.86;100082.50;5056895;28;20033;-79
2021/05/01 06:50:13;;;;;;;29.52;21.88;;;;;;;12.14;54.22;100085.41;5076967;28;20083;-78
2021/05/01 06:52:41;;;;;;;27.85;21.85;;;;;;;12.02;55.44;100093.25;5078025;28;20073;-80
2021/05/01 06:55:08;;;;;;;28.92;22.05;;;;;;;11.75;55.22;100098.31;5072901;28;20439;-80
2021/05/01 06:57:36;;;;;;;28.95;21.10;;;;;;;11.83;55.57;100101.41;5073183;28;20041;-79
2021/05/01 07:00:08;;;;;;;27.33;21.05;;;;;;;12.02;54.60;100106.50;5077665;28;20033;-82
2021/05/01 07:02:40;;;;;;;28.90;21.00;;;;;;;12.46;54.16;100098.59;5067549;28;20053;-79
2021/05/01 07:05:13;;;;;;;30.38;21.15;;;;;;;12.97;52.67;100105.22;5067983;28;20045;-78
2021/05/01 07:07:39;;;;;;;26.98;21.58;;;;;;;13.38;50.55;100102.69;5074474;28;20036;-80
2021/05/01 07:10:08;;;;;;;27.08;20.90;;;;;;;13.69;49.83;100101.59;5071442;28;20049;-80
2021/05/01 07:12:37;;;;;;;27.52;21.25;;;;;;;14.32;48.28;100090.34;5073841;28;20021;-79
2021/05/01 07:15:09;;;;;;;26.70;20.77;;;;;;;15.05;46.21;100096.81;5065054;28;20123;-80
2021/05/01 07:17:36;;;;;;;27.25;21.30;;;;;;;15.74;45.18;100089.25;5052522;28;20053;-81
2021/05/01 07:20:04;;;;;;;26.52;20.63;;;;;;;16.92;42.95;100108.81;5071493;28;20029;-80
2021/05/01 07:22:34;;;;;;;24.60;19.55;;;;;;;18.02;40.30;100100.84;5084316;28;20041;-82
2021/05/01 07:25:05;;;;;;;26.13;19.42;;;;;;;18.90;38.57;100111.28;5061398;28;20041;-80
2021/05/01 07:27:53;;;;;;;23.30;19.45;;;;;;;19.67;36.02;100100.97;5069666;28;20045;-79
2021/05/01 07:30:22;;;;;;;26.08;20.33;;;;;;;19.76;34.68;100100.13;5067058;28;20053;-79
2021/05/01 07:32:51;;;;;;;22.40;18.08;;;;;;;19.93;36.47;100101.28;5062227;28;20492;-79
2021/05/01 07:35:19;;;;;;;24.33;19.97;;;;;;;20.21;35.45;100100.47;5068948;28;20045;-80
2021/05/01 07:37:50;;;;;;;22.10;18.40;;;;;;;20.64;35.58;100108.13;5066271;28;20574;-80
2021/05/01 07:40:22;;;;;;;21.75;19.27;;;;;;;21.32;33.03;100099.94;5051482;28;20084;-80
2021/05/01 07:42:50;;;;;;;23.63;19.55;;;;;;;21.56;31.45;100085.94;5054225;28;20467;-81
2021/05/01 07:45:22;;;;;;;22.38;18.90;;;;;;;21.34;32.15;100090.72;5057012;28;20048;-81
2021/05/01 07:47:51;;;;;;;25.27;19.90;;;;;;;20.72;32.49;100093.13;5056246;28;20045;-81
2021/05/01 07:50:20;;;;;;;23.00;20.02;;;;;;;20.01;33.89;100084.44;5055664;28;20523;-81
2021/05/01 07:52:47;;;;;;;24.17;20.48;;;;;;;19.31;35.30;100078.19;5058467;28;20128;-82
2021/05/01 07:55:14;;;;;;;25.52;20.10;;;;;;;19.06;37.21;100081.28;5055452;28;20045;-80
2021/05/01 07:57:47;;;;;;;22.25;19.08;;;;;;;19.25;37.02;100092.97;5055904;28;20049;-82
2021/05/01 08:00:18;;;;;;;24.75;19.58;;;;;;;19.66;36.26;100093.88;5038824;28;20068;-82
2021/05/01 08:02:47;;;;;;;21.90;18.77;;;;;;;20.01;35.32;100092.53;5038383;28;20052;-81
2021/05/01 08:05:15;;;;;;;28.38;20.67;;;;;;;19.67;34.14;100084.84;5059714;28;20059;-82
2021/05/01 08:07:41;;;;;;;26.05;20.65;;;;;;;19.37;35.33;100092.88;5055455;28;20116;-80
2021/05/01 08:10:08;;;;;;;24.70;19.85;;;;;;;19.24;36.22;100075.19;5064952;28;20071;-81
2021/05/01 08:12:36;;;;;;;24.08;20.30;;;;;;;19.25;36.53;100068.81;5061913;28;20059;-81
2021/05/01 08:15:06;;;;;;;23.95;19.67;;;;;;;19.38;36.29;100060.53;5059234;28;20053;-83
2021/05/01 08:17:33;;;;;;;;;;;;;;;19.54;35.42;100071.63;5051683;28;20060;-81
2021/05/01 08:19:59;;;;;;;29.63;20.95;;;;;;;19.29;35.86;100069.41;5038843;28;19943;-82
2021/05/01 08:22:25;;;;;;;27.00;21.40;;;;;;;19.02;35.48;100077.19;5051684;28;20053;-81
2021/05/01 08:24:51;;;;;;;25.98;20.77;;;;;;;18.48;35.92;100078.22;5055858;28;20072;-82
2021/05/01 08:27:19;;;;;;;24.60;20.33;;;;;;;17.91;37.49;100073.25;5051404;28;20051;-81
2021/05/01 08:29:48;;;;;;;24.27;17.83;;;;;;;17.50;37.81;100080.94;5032994;28;20049;-80
2021/05/01 08:32:14;;;;;;;24.23;19.10;;;;;;;17.13;38.89;100080.38;5058798;28;20132;-82
2021/05/01 08:34:42;;;;;;;24.42;19.88;;;;;;;16.83;40.08;100074.75;5063193;28;20048;-80
2021/05/01 08:37:09;;;;;;;23.90;18.55;;;;;;;16.52;40.79;100078.91;5063573;28;20076;-82
2021/05/01 08:39:37;;;;;;;24.27;19.58;;;;;;;16.34;39.97;100073.16;5058819;28;20045;-81
2021/05/01 08:42:04;;;;;;;25.35;20.38;;;;;;;16.31;41.47;100077.88;5069456;28;20160;-80
2021/05/01 08:44:31;;;;;;;26.27;20.23;;;;;;;16.35;41.73;100077.53;5061985;28;20116;-80
2021/05/01 08:46:59;;;;;;;28.70;20.60;;;;;;;16.35;40.53;100079.34;5060727;28;20467;-79
2021/05/01 08:49:25;;;;;;;30.52;22.33;;;;;;;16.15;40.61;100070.16;5064205;28;20053;-80
2021/05/01 08:51:53;;;;;;;28.98;21.48;;;;;;;15.85;41.16;100067.09;5058913;28;20049;-80
2021/05/01 08:54:19;;;;;;;28.85;21.73;;;;;;;15.51;41.78;100064.19;5061929;28;20055;-80
2021/05/01 08:56:46;;;;;;;25.10;19.30;;;;;;;15.61;41.62;100067.91;5062370;28;20063;-81
2021/05/01 08:59:12;;;;;;;27.70;19.77;;;;;;;15.73;42.09;100059.03;5060940;28;20127;-82
2021/05/01 09:01:39;;;;;;;27.48;20.00;;;;;;;15.74;41.12;100058.03;5055999;28;20106;-81
2021/05/01 09:04:07;;;;;;;27.05;21.02;;;;;;;15.54;42.52;100063.13;5058206;28;20048;-81
2021/05/01 09:06:36;;;;;;;27.23;21.13;;;;;;;15.69;41.95;100073.56;5051892;28;20416;-81
2021/05/01 09:09:07;;;;;;;30.75;22.13;;;;;;;15.42;42.17;100091.56;5055576;28;20480;-81
2021/05/01 09:11:34;;;;;;;30.02;22.08;;;;;;;15.27;42.77;100087.28;5054026;28;20503;-81
2021/05/01 09:14:16;;;;;;;28.83;21.67;;;;;;;15.41;43.75;100082.69;5053478;28;20057;-81
2021/05/01 09:16:44;;;;;;;29.73;21.90;;;;;;;15.35;42.80;100084.94;5055024;28;20036;-80
2021/05/01 09:19:11;;;;;;;29.85;21.88;;;;;;;14.93;43.14;100095.03;5054534;28;20056;-80
2021/05/01 09:21:37;;;;;;;27.23;19.98;;;;;;;14.56;43.78;100095.84;5054412;28;20045;-81
2021/05/01 09:24:04;;;;;;;27.08;20.27;;;;;;;14.49;44.14;100081.22;5067839;28;20100;-81
2021/05/01 09:26:39;;;;;;;30.92;20.60;;;;;;;14.57;43.86;100092.22;5057543;28;20397;-80
2021/05/01 09:29:35;;;;;;;29.35;21.73;;;;;;;14.53;43.81;100090.72;5053465;28;20053;-82
2021/05/01 09:32:04;;;;;;;25.27;18.08;;;;;;;14.63;44.22;100089.16;5051227;28;20041;-81
2021/05/01 09:34:44;;;;;;;28.67;20.00;;;;;;;14.79;43.88;100079.13;5052034;28;20492;-81
2021/05/01 09:37:12;;;;;;;27.98;19.83;;;;;;;14.89;43.41;100080.19;5056600;28;20076;-81
2021/05/01 09:40:01;;;;;;;25.38;19.58;;;;;;;14.98;43.70;100092.88;5051587;28;20131;-81
2021/05/01 09:42:30;;;;;;;26.95;20.02;;;;;;;15.17;43.68;100073.75;5053722;28;20037;-81
2021/05/01 09:45:20;;;;;;;25.17;19.35;;;;;;;15.40;42.64;100077.47;5056696;28;20052;-81
2021/05/01 09:47:53;;;;;;;29.88;20.08;;;;;;;15.41;42.36;100081.84;5058380;28;20045;-81
2021/05/01 09:50:26;;;;;;;25.45;19.73;;;;;;;15.28;42.22;100081.00;5059207;28;20063;-81
2021/05/01 09:53:08;;;;;;;25.65;19.20;;;;;;;15.33;42.63;100073.53;5066326;28;20069;-81
2021/05/01 09:55:54;;;;;;;24.02;18.17;;;;;;;15.39;42.48;100070.44;5059892;28;20068;-82
2021/05/01 09:58:28;;;;;;;25.77;18.70;;;;;;;15.55;42.23;100071.06;5055398;28;20076;-81
2021/05/01 10:01:15;;;;;;;22.98;18.45;;;;;;;15.69;42.28;100076.25;5062874;28;20108;-82
2021/05/01 10:03:42;;;;;;;26.08;17.50;;;;;;;15.79;42.01;100069.25;5069127;28;20092;-80
2021/05/01 10:06:14;;;;;;;24.88;19.35;;;;;;;15.76;40.85;100061.47;5059606;28;20055;-81
2021/05/01 10:08:41;;;;;;;25.95;18.63;;;;;;;15.63;41.06;100065.16;5056887;28;20099;-82
2021/05/01 10:11:13;;;;;;;27.73;19.25;;;;;;;15.41;41.67;100073.84;5058387;28;20095;-81
2021/05/01 10:13:51;;;;;;;24.45;18.42;;;;;;;15.44;42.32;100069.13;5061869;28;20049;-81
2021/05/01 10:16:19;;;;;;;25.27;19.65;;;;;;;15.62;41.69;100064.28;5040150;28;20446;-80
2021/05/01 10:19:06;;;;;;;24.05;17.27;;;;;;;15.90;41.76;100064.97;5057081;28;20051;-81
2021/05/01 10:21:34;;;;;;;25.08;18.52;;;;;;;16.06;40.33;100074.34;5045314;28;20386;-81
2021/05/01 10:24:05;;;;;;;20.45;16.50;;;;;;;16.22;41.97;100066.03;5046679;28;20041;-80
2021/05/01 10:26:42;;;;;;;27.60;18.27;;;;;;;16.09;40.01;100050.09;5059008;28;20131;-80
2021/05/01 10:29:10;;;;;;;24.90;17.80;;;;;;;15.79;40.37;100047.88;5075953;28;20063;-82
2021/05/01 10:31:46;;;;;;;24.52;18.00;;;;;;;15.56;41.09;100045.22;5045555;28;20064;-81
2021/05/01 10:34:13;;;;;;;24.17;18.60;;;;;;;15.58;41.21;100046.81;5068181;28;20058;-80
2021/05/01 10:36:44;;;;;;;25.70;18.65;;;;;;;15.59;41.27;100048.50;5069098;28;20045;-81
2021/05/01 10:39:11;;;;;;;23.38;17.55;;;;;;;15.65;40.64;100050.72;5057763;28;20045;-81
2021/05/01 10:41:38;;;;;;;19.73;16.13;;;;;;;15.74;40.64;100042.03;5064155;28;20072;-81
2021/05/01 10:44:06;;;;;;;25.85;17.25;;;;;;;15.82;40.43;100045.97;5069495;28;20145;-81
2021/05/01 10:46:41;;;;;;;20.33;16.27;;;;;;;15.83;40.67;100048.53;5052866;28;20140;-80
2021/05/01 10:49:10;;;;;;;24.85;17.20;;;;;;;16.02;40.18;100040.84;5064123;28;20049;-81
2021/05/01 10:51:42;;;;;;;20.60;16.83;;;;;;;15.98;40.20;100042.03;5063412;28;20049;-81
2021/05/01 10:54:13;;;;;;;19.08;15.35;;;;;;;16.03;40.47;100036.38;5064265;28;20071;-81
2021/05/01 10:56:44;;;;;;;21.02;15.90;;;;;;;16.16;40.46;100039.81;5073106;28;20057;-81
2021/05/01 10:59:14;;;;;;;;;;;;;;;16.21;40.13;100043.00;5077514;28;20082;-81
2021/05/01 11:01:47;;;;;;;27.13;18.27;;;;;;;15.92;40.30;100034.47;5068177;28;20024;-80
2021/05/01 11:04:26;;;;;;;23.05;17.60;;;;;;;15.92;40.82;100025.63;5064385;28;20076;-80
2021/05/01 11:07:03;;;;;;;21.63;17.15;;;;;;;16.01;40.47;100025.78;5071920;28;20124;-79
2021/05/01 11:09:39;;;;;;;23.60;16.10;;;;;;;16.06;40.67;100030.75;5064663;28;20048;-79
2021/05/01 11:12:09;;;;;;;21.15;15.65;;;;;;;16.23;40.17;100033.00;5068878;28;20128;-80
2021/05/01 11:14:47;;;;;;;22.70;16.83;;;;;;;16.35;39.61;100032.09;5069045;28;20067;-81
2021/05/01 11:17:23;;;;;;;20.05;15.05;;;;;;;16.38;40.09;100033.66;5070297;28;20100;-82
2021/05/01 11:19:57;;;;;;;18.08;14.00;;;;;;;16.40;39.04;100040.59;5074361;28;20055;-78
2021/05/01 11:22:26;;;;;;;21.55;15.50;;;;;;;16.30;38.90;100042.28;5068022;28;20057;-81
2021/05/01 11:24:55;;;;;;;21.98;15.95;;;;;;;16.08;39.47;100043.03;5068754;28;20053;-80